Buckskin, IN

1:46 AM CST on January 26, 2015 (GMT -0600)
Rural Princeton | Change Station
CLOSE
Current Station
Personal Weather Station
Location: Princeton, IN
Elevation: 436 ft
Nearby Weather Stations

Elev 436 ft 38.30 °N, 87.59 °W | Updated 17 seconds ago

Overcast
Overcast
30.1 °F
Feels Like 21 °F
N
10.0
Wind Variable Wind from NE
Gusts 10.0 mph

Today
High -- | Low -- °F
--% Chance of Precip.
Yesterday
High -- | Low -- °F
Precip. -- in
6:59 AM 5:05 PM
Waxing Crescent, 40% visible
Pressure 29.89 in
Visibility 10.0 miles
Clouds Overcast 1100 ft
Windchill 21 °F
Dew Point 27 °F
Humidity 88%
Rainfall 0.00 in
Snow Depth Not available.
UV 0 out of 12
Pollen .10 out of 12
Air Quality Not available.
Flu Activity Not available.
METAR KEVV 260654Z AUTO 34015G23KT 10SM OVC011 00/M03 A2988 RMK AO2 SLP121 T00001028

More Conditions Fewer Conditions

Pressure 29.89 in
Visibility 10.0 miles
Clouds Overcast 1100 ft
Windchill 21 °F
Dew Point 27 °F
Humidity 88%
Rainfall 0.00 in
Snow Depth Not available.
UV 0 out of 12
Pollen .10 out of 12
Air Quality Not available.
Flu Activity Not available.
METAR KEVV 260654Z AUTO 34015G23KT 10SM OVC011 00/M03 A2988 RMK AO2 SLP121 T00001028

More Conditions Fewer Conditions

10-Day Weather Forecast

Almanac

Astronomy

Jan. 26, 2015 Rise Set
Actual Time
Civil Twilight
Nautical Twilight
Astronomical Twilight
Moon
Length of Visible Light
Length of Day
Tomorrow will be .
, % of the Moon is Illuminated

Today's Extremes

State Highs State Lows

Community

WunderPhotos

Upload Photos

1,790,155 photos uploaded!

WunderBlogs® & News

Nearby

Air Quality

  Air Quality AQ Index Pollutant
Not available.

Snow Depth

Station Depth Elevation

Earthquake Activity

City Distance Mag. Time & Date
Minimum magnitude displayed is 2.5.

Coastal Water Temperatures

Place Temperature

Nearby Weather Stations